createdAt,value
2018-11-14T00:02:34.448Z,10.30
2018-11-14T00:05:40.106Z,10.20
2018-11-14T00:08:45.581Z,10.20
2018-11-14T00:11:51.010Z,10.10
2018-11-14T00:14:57.441Z,10.10
2018-11-14T00:18:02.904Z,10.20
2018-11-14T00:21:08.400Z,10.20
2018-11-14T00:24:14.153Z,10.20
2018-11-14T00:27:19.570Z,10.20
2018-11-14T00:30:26.006Z,10.20
2018-11-14T00:33:31.451Z,10.10
2018-11-14T00:36:36.838Z,10.10
2018-11-14T00:39:42.316Z,10.10
2018-11-14T00:42:48.466Z,10.10
2018-11-14T00:45:53.935Z,10.10
2018-11-14T00:48:59.409Z,10.10
2018-11-14T00:52:05.502Z,10.10
2018-11-14T00:55:13.987Z,10.10
2018-11-14T00:58:19.353Z,10.10
2018-11-14T01:01:24.944Z,10.00
2018-11-14T01:04:30.838Z,10.00
2018-11-14T01:07:36.334Z,10.00
2018-11-14T01:10:41.745Z,9.90
2018-11-14T01:13:47.289Z,10.00
2018-11-14T01:16:52.715Z,10.00
2018-11-14T01:19:58.163Z,9.90
2018-11-14T01:23:03.712Z,9.90
2018-11-14T01:26:09.772Z,9.90
2018-11-14T01:29:15.138Z,9.80
2018-11-14T01:32:20.591Z,9.80
2018-11-14T01:35:26.172Z,9.80
2018-11-14T01:38:31.607Z,9.80
2018-11-14T01:41:37.158Z,9.90
2018-11-14T01:44:42.622Z,9.90
2018-11-14T01:47:48.049Z,9.90
2018-11-14T01:50:53.475Z,9.90
2018-11-14T01:53:58.966Z,9.80
2018-11-14T01:57:04.410Z,9.90
2018-11-14T02:00:13.044Z,9.90
2018-11-14T02:03:18.462Z,9.90
2018-11-14T02:06:24.174Z,9.90
2018-11-14T02:09:29.622Z,9.80
2018-11-14T02:12:35.411Z,9.80
2018-11-14T02:15:40.922Z,9.80
2018-11-14T02:18:46.305Z,9.80
2018-11-14T02:21:51.677Z,9.70
2018-11-14T02:24:57.218Z,9.70
2018-11-14T02:28:02.649Z,9.70
2018-11-14T02:31:08.398Z,9.60
2018-11-14T02:34:13.878Z,9.60
2018-11-14T02:37:19.482Z,9.50
2018-11-14T02:40:24.945Z,9.50
2018-11-14T02:43:30.458Z,9.50
2018-11-14T02:46:35.813Z,9.50
2018-11-14T02:49:41.228Z,9.50
2018-11-14T02:52:46.721Z,9.40
2018-11-14T02:56:06.210Z,9.40
2018-11-14T02:59:11.566Z,9.40
2018-11-14T03:02:17.095Z,9.30
2018-11-14T03:05:22.625Z,9.30
2018-11-14T03:08:28.110Z,9.30
2018-11-14T03:11:33.495Z,9.30
2018-11-14T03:14:38.924Z,9.20
2018-11-14T03:17:44.373Z,9.20
2018-11-14T03:20:49.819Z,9.30
2018-11-14T03:23:55.396Z,9.20
2018-11-14T03:27:00.826Z,9.20
2018-11-14T03:30:08.929Z,9.20
2018-11-14T03:33:14.631Z,9.20
2018-11-14T03:36:20.997Z,9.10
2018-11-14T03:39:26.673Z,9.10
2018-11-14T03:42:32.062Z,9.10
2018-11-14T03:45:37.526Z,9.10
2018-11-14T03:48:43.102Z,9.10
2018-11-14T03:51:48.554Z,9.10
2018-11-14T03:54:54.011Z,9.10
2018-11-14T03:57:59.438Z,9.10
2018-11-14T04:01:06.091Z,9.10
2018-11-14T04:04:11.625Z,9.10
2018-11-14T04:07:17.070Z,9.10
2018-11-14T04:10:22.545Z,9.10
2018-11-14T04:13:28.117Z,9.10
2018-11-14T04:16:33.613Z,9.10
2018-11-14T04:19:38.998Z,9.10
2018-11-14T04:22:44.670Z,9.10
2018-11-14T04:25:50.115Z,9.10
2018-11-14T04:28:55.619Z,9.10
2018-11-14T04:32:01.201Z,9.20
2018-11-14T04:35:09.418Z,9.20
2018-11-14T04:38:14.835Z,9.10
2018-11-14T04:41:20.260Z,9.20
2018-11-14T04:44:25.734Z,9.20
2018-11-14T04:47:31.304Z,9.30
2018-11-14T04:50:36.690Z,9.20
2018-11-14T04:53:42.118Z,9.20
2018-11-14T04:56:47.542Z,9.30
2018-11-14T04:59:53.350Z,9.30
2018-11-14T05:02:59.327Z,9.30
2018-11-14T05:06:05.405Z,9.30
2018-11-14T05:09:12.779Z,9.30
2018-11-14T05:12:18.214Z,9.30
2018-11-14T05:15:24.834Z,9.30
2018-11-14T05:18:31.977Z,9.30
2018-11-14T05:21:37.431Z,9.20
2018-11-14T05:24:42.914Z,9.30
2018-11-14T05:27:48.808Z,9.30
2018-11-14T05:30:54.186Z,9.40
2018-11-14T05:33:59.689Z,9.40
2018-11-14T05:37:05.133Z,9.30
2018-11-14T05:40:13.935Z,9.40
2018-11-14T05:43:19.601Z,9.40
2018-11-14T05:46:24.984Z,9.40
2018-11-14T05:49:30.419Z,9.40
2018-11-14T05:52:35.842Z,9.40
2018-11-14T05:55:41.290Z,9.40
2018-11-14T05:58:46.650Z,9.40
2018-11-14T06:01:52.130Z,9.30
2018-11-14T06:04:57.592Z,9.40
2018-11-14T06:08:03.011Z,9.40
2018-11-14T06:11:08.426Z,9.40
2018-11-14T06:14:13.926Z,9.50
2018-11-14T06:17:19.305Z,9.40
2018-11-14T06:20:24.763Z,9.40
2018-11-14T06:23:30.739Z,9.40
2018-11-14T06:26:36.277Z,9.40
2018-11-14T06:29:41.741Z,9.40
2018-11-14T06:32:47.482Z,9.50
2018-11-14T06:35:52.858Z,9.50
2018-11-14T06:38:58.329Z,9.50
2018-11-14T06:42:03.800Z,9.50
2018-11-14T06:45:13.162Z,9.60
2018-11-14T06:48:18.530Z,9.60
2018-11-14T06:51:23.954Z,9.50
2018-11-14T06:54:29.385Z,9.50
2018-11-14T06:57:34.849Z,9.60
2018-11-14T07:00:40.217Z,9.60
2018-11-14T07:03:45.702Z,9.60
2018-11-14T07:06:51.081Z,9.60
2018-11-14T07:09:56.490Z,9.60
2018-11-14T07:13:05.788Z,9.60
2018-11-14T07:16:11.206Z,9.60
2018-11-14T07:19:16.593Z,9.60
2018-11-14T07:22:21.982Z,9.60
2018-11-14T07:25:27.849Z,9.60
2018-11-14T07:28:33.320Z,9.70
2018-11-14T07:31:38.759Z,9.80
2018-11-14T07:34:44.214Z,9.80
2018-11-14T07:38:53.281Z,9.80
2018-11-14T07:41:58.721Z,9.90
2018-11-14T07:45:04.204Z,9.90
2018-11-14T07:48:11.903Z,9.90
2018-11-14T07:51:17.509Z,9.90
2018-11-14T07:54:23.100Z,9.90
2018-11-14T07:57:28.694Z,9.90
2018-11-14T08:00:34.159Z,9.90
2018-11-14T08:03:39.656Z,9.90
2018-11-14T08:06:45.104Z,9.90
2018-11-14T08:09:51.081Z,9.90
2018-11-14T08:12:56.771Z,9.90
2018-11-14T08:16:02.899Z,9.90
2018-11-14T08:19:08.461Z,10.00
2018-11-14T08:22:14.043Z,10.00
2018-11-14T08:25:19.783Z,10.10
2018-11-14T08:28:25.746Z,10.10
2018-11-14T08:31:31.211Z,10.10
2018-11-14T08:34:36.675Z,10.10
2018-11-14T08:37:42.365Z,10.20
2018-11-14T08:40:48.255Z,10.20
2018-11-14T08:43:53.869Z,10.20
2018-11-14T08:46:59.371Z,10.20
2018-11-14T08:50:06.431Z,10.30
2018-11-14T08:53:13.806Z,10.30
2018-11-14T08:56:19.289Z,10.40
2018-11-14T08:59:24.811Z,10.50
2018-11-14T09:02:30.249Z,10.50
2018-11-14T09:05:35.719Z,10.50
2018-11-14T09:08:41.362Z,10.50
2018-11-14T09:11:47.112Z,10.40
2018-11-14T09:14:52.773Z,10.50
2018-11-14T09:17:58.465Z,10.50
2018-11-14T09:21:04.047Z,10.50
2018-11-14T09:24:09.523Z,10.50
2018-11-14T09:27:15.135Z,10.50
2018-11-14T09:30:22.778Z,10.50
2018-11-14T09:33:28.268Z,10.50
2018-11-14T09:36:33.747Z,10.50
2018-11-14T09:39:39.222Z,10.50
2018-11-14T09:42:44.730Z,10.60
2018-11-14T09:45:50.123Z,10.60
2018-11-14T09:48:55.552Z,10.70
2018-11-14T09:52:00.962Z,10.70
2018-11-14T09:55:08.543Z,10.70
2018-11-14T09:58:13.999Z,10.60
2018-11-14T10:01:19.398Z,10.60
2018-11-14T10:04:24.859Z,10.70
2018-11-14T10:07:30.333Z,10.70
2018-11-14T10:10:35.746Z,10.80
2018-11-14T10:13:41.202Z,10.80
2018-11-14T10:16:46.649Z,10.90
2018-11-14T10:19:52.047Z,10.80
2018-11-14T10:22:57.518Z,10.80
2018-11-14T10:26:02.970Z,10.90
2018-11-14T10:29:08.543Z,11.00
2018-11-14T10:32:14.045Z,11.10
2018-11-14T10:35:19.604Z,11.20
2018-11-14T10:38:25.071Z,11.30
2018-11-14T10:41:30.466Z,11.30
2018-11-14T10:44:35.935Z,11.40
2018-11-14T10:47:41.443Z,11.40
2018-11-14T10:50:46.948Z,11.50
2018-11-14T10:53:52.589Z,11.60
2018-11-14T10:56:58.411Z,11.60
2018-11-14T11:00:04.164Z,11.60
2018-11-14T11:03:14.719Z,11.50
2018-11-14T11:06:34.031Z,11.50
2018-11-14T11:09:44.499Z,11.20
2018-11-14T11:14:55.839Z,11.20
2018-11-14T11:18:03.037Z,11.30
2018-11-14T11:21:08.408Z,11.30
2018-11-14T11:24:14.661Z,11.20
2018-11-14T11:27:20.058Z,11.30
2018-11-14T11:30:25.442Z,11.30
2018-11-14T11:33:30.843Z,11.40
2018-11-14T11:36:36.278Z,11.40
2018-11-14T11:39:41.650Z,11.30
2018-11-14T11:42:47.051Z,11.40
2018-11-14T11:45:52.430Z,11.40
2018-11-14T11:48:57.838Z,11.50
2018-11-14T11:52:03.546Z,11.40
2018-11-14T11:55:08.995Z,11.40
2018-11-14T11:58:14.363Z,11.40
2018-11-14T12:01:19.746Z,11.40
2018-11-14T12:04:25.154Z,11.50
2018-11-14T12:07:30.498Z,11.50
2018-11-14T12:10:35.924Z,11.60
2018-11-14T12:13:41.585Z,11.60
2018-11-14T12:16:47.142Z,11.70
2018-11-14T12:19:52.527Z,11.80
2018-11-14T12:22:58.140Z,11.80
2018-11-14T12:26:03.525Z,11.80
2018-11-14T12:29:08.882Z,11.80
2018-11-14T12:32:14.278Z,11.70
2018-11-14T12:35:19.739Z,11.80
2018-11-14T12:38:25.309Z,11.80
2018-11-14T12:41:30.713Z,11.90
2018-11-14T12:44:36.077Z,11.80
2018-11-14T12:47:41.591Z,11.80
2018-11-14T12:50:46.973Z,11.90
2018-11-14T12:53:52.341Z,11.80
2018-11-14T12:56:57.726Z,11.90
2018-11-14T13:00:03.269Z,11.90
2018-11-14T13:03:08.829Z,11.90
2018-11-14T13:06:14.214Z,11.90
2018-11-14T13:09:19.573Z,12.00
2018-11-14T13:12:24.965Z,12.00
2018-11-14T13:15:30.333Z,12.10
2018-11-14T13:18:35.722Z,12.10
2018-11-14T13:21:44.604Z,12.10
2018-11-14T13:24:49.962Z,12.10
2018-11-14T13:27:55.742Z,12.10
2018-11-14T13:31:01.302Z,12.00
2018-11-14T13:34:07.098Z,12.10
2018-11-14T13:37:12.520Z,12.20
2018-11-14T13:40:17.930Z,12.10
2018-11-14T13:43:24.229Z,12.10
2018-11-14T13:46:29.616Z,12.10
2018-11-14T13:49:35.186Z,12.00
2018-11-14T13:52:40.775Z,12.00
2018-11-14T13:55:46.141Z,12.00
2018-11-14T13:58:51.506Z,12.00
2018-11-14T14:01:56.926Z,12.00
2018-11-14T14:05:02.435Z,12.00
2018-11-14T14:08:07.936Z,11.90
2018-11-14T14:11:13.470Z,12.00
2018-11-14T14:14:19.488Z,11.90
2018-11-14T14:17:24.942Z,11.90
2018-11-14T14:20:32.317Z,11.90
2018-11-14T14:23:42.626Z,11.90
2018-11-14T14:26:50.192Z,12.00
2018-11-14T14:29:55.597Z,12.10
2018-11-14T14:33:01.130Z,12.20
2018-11-14T14:36:07.442Z,12.20
2018-11-14T14:39:13.566Z,12.20
2018-11-14T14:42:18.963Z,12.20
2018-11-14T14:45:25.950Z,12.30
2018-11-14T14:48:31.434Z,12.20
2018-11-14T14:51:37.002Z,12.20
2018-11-14T14:54:42.427Z,12.10
2018-11-14T14:57:48.145Z,12.10
2018-11-14T15:00:53.995Z,12.10
2018-11-14T15:03:59.499Z,12.00
2018-11-14T15:07:05.934Z,12.10
2018-11-14T15:10:15.210Z,12.10
2018-11-14T15:13:20.585Z,12.10
2018-11-14T15:16:25.982Z,12.10
2018-11-14T15:19:31.346Z,12.00
2018-11-14T15:22:37.139Z,12.10
2018-11-14T15:25:42.678Z,12.10
2018-11-14T15:28:48.064Z,11.90
2018-11-14T15:31:53.651Z,11.90
2018-11-14T15:34:59.428Z,11.90
2018-11-14T15:38:05.448Z,11.90
2018-11-14T15:41:10.846Z,11.90
2018-11-14T15:44:16.604Z,11.80
2018-11-14T15:47:21.959Z,11.90
2018-11-14T15:50:28.949Z,11.80
2018-11-14T15:53:34.666Z,11.80
2018-11-14T15:56:40.044Z,11.80
2018-11-14T15:59:45.410Z,11.90
2018-11-14T16:02:50.842Z,11.90
2018-11-14T16:05:56.454Z,11.90
2018-11-14T16:09:01.841Z,11.80
2018-11-14T16:12:07.606Z,11.80
2018-11-14T16:15:14.151Z,11.70
2018-11-14T16:18:19.514Z,11.80
2018-11-14T16:21:24.918Z,11.70
2018-11-14T16:24:30.338Z,11.80
2018-11-14T16:27:35.918Z,11.80
2018-11-14T16:30:41.284Z,11.80
2018-11-14T16:33:46.678Z,11.80
2018-11-14T16:36:52.054Z,11.90
2018-11-14T16:39:57.445Z,11.80
2018-11-14T16:43:04.324Z,11.80
2018-11-14T16:46:09.738Z,11.70
2018-11-14T16:49:15.314Z,11.70
2018-11-14T16:52:20.709Z,11.70
2018-11-14T16:55:26.204Z,11.70
2018-11-14T16:58:31.797Z,11.70
2018-11-14T17:01:37.222Z,11.70
2018-11-14T17:04:42.657Z,11.70
2018-11-14T17:07:48.162Z,11.70
2018-11-14T17:10:53.598Z,11.70
2018-11-14T17:13:58.994Z,11.70
2018-11-14T17:17:04.438Z,11.80
2018-11-14T17:20:10.816Z,11.90
2018-11-14T17:23:16.258Z,11.90
2018-11-14T17:26:21.736Z,11.90
2018-11-14T17:29:27.253Z,11.80
2018-11-14T17:32:32.650Z,11.80
2018-11-14T17:35:38.046Z,11.80
2018-11-14T17:38:43.447Z,11.90
2018-11-14T17:41:48.946Z,11.80
2018-11-14T17:44:54.441Z,11.90
2018-11-14T17:48:00.147Z,11.90
2018-11-14T17:51:05.771Z,11.80
2018-11-14T17:54:11.191Z,11.80
2018-11-14T17:57:16.602Z,11.90
2018-11-14T18:00:23.417Z,11.90
2018-11-14T18:03:28.863Z,11.90
2018-11-14T18:06:34.243Z,11.80
2018-11-14T18:09:39.831Z,11.90
2018-11-14T18:12:46.477Z,11.90
2018-11-14T18:15:51.842Z,11.80
2018-11-14T18:18:57.201Z,11.90
2018-11-14T18:22:02.627Z,11.90
2018-11-14T18:25:08.399Z,11.90
2018-11-14T18:28:13.774Z,11.90
2018-11-14T18:31:19.245Z,11.80
2018-11-14T18:34:24.614Z,11.80
2018-11-14T18:37:30.051Z,11.80
2018-11-14T18:40:35.873Z,11.90
2018-11-14T18:43:41.272Z,11.90
2018-11-14T18:46:46.670Z,11.90
2018-11-14T18:49:52.102Z,11.90
2018-11-14T18:52:57.542Z,11.90
2018-11-14T18:56:02.895Z,11.90
2018-11-14T18:59:08.390Z,11.90
2018-11-14T19:02:13.807Z,11.90
2018-11-14T19:05:19.734Z,11.80
2018-11-14T19:08:25.144Z,11.80
2018-11-14T19:11:30.545Z,11.80
2018-11-14T19:14:35.945Z,11.70
2018-11-14T19:17:41.841Z,11.70
2018-11-14T19:20:47.226Z,11.60
2018-11-14T19:23:52.658Z,11.50
2018-11-14T19:26:58.069Z,11.40
2018-11-14T19:30:04.006Z,11.30
2018-11-14T19:33:09.520Z,11.30
2018-11-14T19:36:15.220Z,11.30
2018-11-14T19:39:20.845Z,11.30
2018-11-14T19:42:28.199Z,11.20
2018-11-14T19:45:38.391Z,11.20
2018-11-14T19:48:47.909Z,11.10
2018-11-14T19:51:56.574Z,11.20
2018-11-14T19:55:02.239Z,11.20
2018-11-14T19:58:09.421Z,11.20
2018-11-14T20:01:27.167Z,11.20
2018-11-14T20:04:32.889Z,11.00
2018-11-14T20:07:39.062Z,10.90
2018-11-14T20:10:44.564Z,11.00
2018-11-14T20:13:53.335Z,10.90
2018-11-14T20:17:00.937Z,11.00
2018-11-14T20:20:09.316Z,10.90
2018-11-14T20:23:15.003Z,11.00
2018-11-14T20:26:20.813Z,11.00
2018-11-14T20:29:26.693Z,11.00
2018-11-14T20:32:32.090Z,11.00
2018-11-14T20:35:37.906Z,11.00
2018-11-14T20:38:43.463Z,11.00
2018-11-14T20:41:49.085Z,11.00
2018-11-14T20:44:54.815Z,10.90
2018-11-14T20:48:00.498Z,10.90
2018-11-14T20:51:07.250Z,10.80
2018-11-14T20:54:12.842Z,10.80
2018-11-14T20:57:20.346Z,10.70
2018-11-14T21:00:29.909Z,10.60
2018-11-14T21:03:35.823Z,10.50
2018-11-14T21:06:41.351Z,10.50
2018-11-14T21:09:46.982Z,10.50
2018-11-14T21:12:53.444Z,10.60
2018-11-14T21:15:58.938Z,10.60
2018-11-14T21:19:04.629Z,10.50
2018-11-14T21:22:13.889Z,10.60
2018-11-14T21:25:20.422Z,10.60
2018-11-14T21:28:26.181Z,10.60
2018-11-14T21:31:33.463Z,10.50
2018-11-14T21:34:52.258Z,10.50
2018-11-14T21:38:00.139Z,10.50
2018-11-14T21:41:05.651Z,10.40
2018-11-14T21:44:11.423Z,10.30
2018-11-14T21:47:17.062Z,10.40
2018-11-14T21:50:23.721Z,10.40
2018-11-14T21:53:29.394Z,10.40
2018-11-14T21:56:34.953Z,10.30
2018-11-14T21:59:40.470Z,10.20
2018-11-14T22:02:48.706Z,10.30
2018-11-14T22:05:54.404Z,10.30
2018-11-14T22:08:59.927Z,10.30
2018-11-14T22:12:05.535Z,10.20
2018-11-14T22:15:11.959Z,10.20
2018-11-14T22:18:17.573Z,10.20
2018-11-14T22:21:23.047Z,10.20
2018-11-14T22:24:28.850Z,10.20
2018-11-14T22:27:34.997Z,10.20
2018-11-14T22:30:40.703Z,10.10
2018-11-14T22:33:46.268Z,10.10
2018-11-14T22:36:52.300Z,10.10
2018-11-14T22:39:58.019Z,10.20
2018-11-14T22:43:06.791Z,10.10
2018-11-14T22:46:12.463Z,10.20
2018-11-14T22:49:18.121Z,10.20
2018-11-14T22:52:23.768Z,10.20
2018-11-14T22:55:29.618Z,10.20
2018-11-14T22:58:36.191Z,10.20
2018-11-14T23:01:42.092Z,10.20
2018-11-14T23:04:47.886Z,10.20
2018-11-14T23:07:54.409Z,10.30
2018-11-14T23:11:00.108Z,10.20
2018-11-14T23:14:06.326Z,10.20
2018-11-14T23:17:11.764Z,10.30
2018-11-14T23:20:17.793Z,10.30
2018-11-14T23:23:23.538Z,10.20
2018-11-14T23:26:29.846Z,10.20
2018-11-14T23:29:35.900Z,10.20
2018-11-14T23:32:42.957Z,10.20
2018-11-14T23:35:48.628Z,10.20
2018-11-14T23:38:54.466Z,10.20
2018-11-14T23:42:00.084Z,10.00
2018-11-14T23:45:07.583Z,10.00
2018-11-14T23:48:13.055Z,10.10
2018-11-14T23:51:18.567Z,10.10
2018-11-14T23:54:24.378Z,10.00
2018-11-14T23:57:29.900Z,10.00
